sensor_id;sensor_type;location;lat;lon;timestamp;P1;durP1;ratioP1;P2;durP2;ratioP2
69527;SDS011;57136;51.986;4.468;2022-11-14T00:00:05;28.40;;;18.98;;
69527;SDS011;57136;51.986;4.468;2022-11-14T00:02:33;30.50;;;20.02;;
69527;SDS011;57136;51.986;4.468;2022-11-14T00:04:58;31.95;;;20.73;;
69527;SDS011;57136;51.986;4.468;2022-11-14T00:07:23;31.08;;;20.63;;
69527;SDS011;57136;51.986;4.468;2022-11-14T00:09:49;33.58;;;21.20;;
69527;SDS011;57136;51.986;4.468;2022-11-14T00:12:14;32.90;;;21.60;;
69527;SDS011;57136;51.986;4.468;2022-11-14T00:14:40;34.00;;;21.50;;
69527;SDS011;57136;51.986;4.468;2022-11-14T00:17:05;34.85;;;21.95;;
69527;SDS011;57136;51.986;4.468;2022-11-14T00:19:30;34.72;;;21.65;;
69527;SDS011;57136;51.986;4.468;2022-11-14T00:21:56;34.22;;;21.85;;
69527;SDS011;57136;51.986;4.468;2022-11-14T00:24:21;33.33;;;22.13;;
69527;SDS011;57136;51.986;4.468;2022-11-14T00:26:47;35.50;;;22.23;;
69527;SDS011;57136;51.986;4.468;2022-11-14T00:29:13;35.65;;;23.08;;
69527;SDS011;57136;51.986;4.468;2022-11-14T00:31:39;34.60;;;22.95;;
69527;SDS011;57136;51.986;4.468;2022-11-14T00:34:04;33.97;;;22.45;;
69527;SDS011;57136;51.986;4.468;2022-11-14T00:36:30;34.22;;;22.00;;
69527;SDS011;57136;51.986;4.468;2022-11-14T00:38:56;39.42;;;23.27;;
69527;SDS011;57136;51.986;4.468;2022-11-14T00:41:21;33.88;;;21.20;;
69527;SDS011;57136;51.986;4.468;2022-11-14T00:43:47;33.88;;;21.80;;
69527;SDS011;57136;51.986;4.468;2022-11-14T00:46:12;32.38;;;20.95;;
69527;SDS011;57136;51.986;4.468;2022-11-14T00:48:38;35.88;;;22.23;;
69527;SDS011;57136;51.986;4.468;2022-11-14T00:51:03;32.10;;;20.95;;
69527;SDS011;57136;51.986;4.468;2022-11-14T00:53:28;34.03;;;21.48;;
69527;SDS011;57136;51.986;4.468;2022-11-14T00:55:54;33.03;;;22.02;;
69527;SDS011;57136;51.986;4.468;2022-11-14T00:58:20;32.15;;;20.73;;
69527;SDS011;57136;51.986;4.468;2022-11-14T01:00:45;30.63;;;21.27;;
69527;SDS011;57136;51.986;4.468;2022-11-14T01:03:10;30.27;;;21.33;;
69527;SDS011;57136;51.986;4.468;2022-11-14T01:05:54;30.88;;;20.20;;
69527;SDS011;57136;51.986;4.468;2022-11-14T01:08:19;33.60;;;20.35;;
69527;SDS011;57136;51.986;4.468;2022-11-14T01:10:46;31.38;;;20.42;;
69527;SDS011;57136;51.986;4.468;2022-11-14T01:13:13;28.95;;;19.38;;
69527;SDS011;57136;51.986;4.468;2022-11-14T01:15:40;30.98;;;20.52;;
69527;SDS011;57136;51.986;4.468;2022-11-14T01:18:11;30.25;;;20.02;;
69527;SDS011;57136;51.986;4.468;2022-11-14T01:23:08;30.60;;;19.63;;
69527;SDS011;57136;51.986;4.468;2022-11-14T01:25:35;28.23;;;19.20;;
69527;SDS011;57136;51.986;4.468;2022-11-14T01:28:04;26.75;;;19.02;;
69527;SDS011;57136;51.986;4.468;2022-11-14T01:30:33;31.45;;;19.80;;
69527;SDS011;57136;51.986;4.468;2022-11-14T01:32:58;30.58;;;20.13;;
69527;SDS011;57136;51.986;4.468;2022-11-14T01:35:24;28.50;;;18.98;;
69527;SDS011;57136;51.986;4.468;2022-11-14T01:37:49;29.73;;;19.08;;
69527;SDS011;57136;51.986;4.468;2022-11-14T01:40:14;31.55;;;19.38;;
69527;SDS011;57136;51.986;4.468;2022-11-14T01:42:40;29.35;;;18.55;;
69527;SDS011;57136;51.986;4.468;2022-11-14T01:48:19;26.25;;;17.90;;
69527;SDS011;57136;51.986;4.468;2022-11-14T01:51:38;26.13;;;17.40;;
69527;SDS011;57136;51.986;4.468;2022-11-14T01:53:48;26.20;;;17.92;;
69527;SDS011;57136;51.986;4.468;2022-11-14T01:56:18;26.65;;;17.17;;
69527;SDS011;57136;51.986;4.468;2022-11-14T01:58:51;27.02;;;17.67;;
69527;SDS011;57136;51.986;4.468;2022-11-14T02:01:21;23.50;;;16.75;;
69527;SDS011;57136;51.986;4.468;2022-11-14T02:03:49;27.80;;;17.88;;
69527;SDS011;57136;51.986;4.468;2022-11-14T02:06:17;28.65;;;17.30;;
69527;SDS011;57136;51.986;4.468;2022-11-14T02:08:45;26.17;;;16.55;;
69527;SDS011;57136;51.986;4.468;2022-11-14T02:11:12;24.75;;;17.52;;
69527;SDS011;57136;51.986;4.468;2022-11-14T02:13:37;26.92;;;17.55;;
69527;SDS011;57136;51.986;4.468;2022-11-14T02:16:03;23.35;;;16.15;;
69527;SDS011;57136;51.986;4.468;2022-11-14T02:18:29;26.25;;;17.35;;
69527;SDS011;57136;51.986;4.468;2022-11-14T02:20:54;23.35;;;16.58;;
69527;SDS011;57136;51.986;4.468;2022-11-14T02:23:27;24.92;;;16.08;;
69527;SDS011;57136;51.986;4.468;2022-11-14T02:25:53;27.17;;;15.00;;
69527;SDS011;57136;51.986;4.468;2022-11-14T02:28:19;23.92;;;14.90;;
69527;SDS011;57136;51.986;4.468;2022-11-14T02:30:45;22.88;;;16.05;;
69527;SDS011;57136;51.986;4.468;2022-11-14T02:33:11;23.48;;;15.13;;
69527;SDS011;57136;51.986;4.468;2022-11-14T02:35:36;24.45;;;15.77;;
69527;SDS011;57136;51.986;4.468;2022-11-14T02:38:01;26.45;;;15.40;;
69527;SDS011;57136;51.986;4.468;2022-11-14T02:40:27;23.13;;;16.05;;
69527;SDS011;57136;51.986;4.468;2022-11-14T02:42:52;23.67;;;15.77;;
69527;SDS011;57136;51.986;4.468;2022-11-14T02:45:17;24.63;;;15.45;;
69527;SDS011;57136;51.986;4.468;2022-11-14T02:47:44;25.15;;;17.02;;
69527;SDS011;57136;51.986;4.468;2022-11-14T02:50:10;25.35;;;15.32;;
69527;SDS011;57136;51.986;4.468;2022-11-14T02:52:35;26.92;;;16.33;;
69527;SDS011;57136;51.986;4.468;2022-11-14T02:55:01;28.80;;;16.17;;
69527;SDS011;57136;51.986;4.468;2022-11-14T02:57:26;23.70;;;16.23;;
69527;SDS011;57136;51.986;4.468;2022-11-14T02:59:52;26.13;;;15.90;;
69527;SDS011;57136;51.986;4.468;2022-11-14T03:02:17;25.50;;;17.02;;
69527;SDS011;57136;51.986;4.468;2022-11-14T03:04:42;24.30;;;16.23;;
69527;SDS011;57136;51.986;4.468;2022-11-14T03:07:08;25.55;;;16.23;;
69527;SDS011;57136;51.986;4.468;2022-11-14T03:09:34;26.25;;;16.55;;
69527;SDS011;57136;51.986;4.468;2022-11-14T03:11:59;32.47;;;16.52;;
69527;SDS011;57136;51.986;4.468;2022-11-14T03:14:24;23.85;;;16.00;;
69527;SDS011;57136;51.986;4.468;2022-11-14T03:16:50;24.65;;;16.15;;
69527;SDS011;57136;51.986;4.468;2022-11-14T03:19:15;24.17;;;16.60;;
69527;SDS011;57136;51.986;4.468;2022-11-14T03:21:40;24.00;;;15.93;;
69527;SDS011;57136;51.986;4.468;2022-11-14T03:24:07;22.67;;;14.82;;
69527;SDS011;57136;51.986;4.468;2022-11-14T03:26:32;25.05;;;16.45;;
69527;SDS011;57136;51.986;4.468;2022-11-14T03:28:57;26.95;;;16.77;;
69527;SDS011;57136;51.986;4.468;2022-11-14T03:31:23;29.25;;;17.10;;
69527;SDS011;57136;51.986;4.468;2022-11-14T03:33:48;27.67;;;17.02;;
69527;SDS011;57136;51.986;4.468;2022-11-14T03:36:13;28.48;;;17.10;;
69527;SDS011;57136;51.986;4.468;2022-11-14T03:38:41;24.98;;;15.05;;
69527;SDS011;57136;51.986;4.468;2022-11-14T03:41:07;29.88;;;18.48;;
69527;SDS011;57136;51.986;4.468;2022-11-14T03:43:33;27.50;;;16.10;;
69527;SDS011;57136;51.986;4.468;2022-11-14T03:46:01;32.13;;;16.80;;
69527;SDS011;57136;51.986;4.468;2022-11-14T03:48:27;28.70;;;16.80;;
69527;SDS011;57136;51.986;4.468;2022-11-14T03:50:54;27.77;;;16.98;;
69527;SDS011;57136;51.986;4.468;2022-11-14T03:53:20;31.50;;;17.45;;
69527;SDS011;57136;51.986;4.468;2022-11-14T03:55:45;31.00;;;17.05;;
69527;SDS011;57136;51.986;4.468;2022-11-14T03:58:10;27.75;;;17.70;;
69527;SDS011;57136;51.986;4.468;2022-11-14T04:00:36;33.83;;;19.17;;
69527;SDS011;57136;51.986;4.468;2022-11-14T04:03:01;32.95;;;18.10;;
69527;SDS011;57136;51.986;4.468;2022-11-14T04:05:26;30.73;;;19.10;;
69527;SDS011;57136;51.986;4.468;2022-11-14T04:07:52;33.85;;;18.30;;
69527;SDS011;57136;51.986;4.468;2022-11-14T04:10:18;34.03;;;16.92;;
69527;SDS011;57136;51.986;4.468;2022-11-14T04:12:46;31.67;;;17.55;;
69527;SDS011;57136;51.986;4.468;2022-11-14T04:15:16;31.17;;;18.30;;
69527;SDS011;57136;51.986;4.468;2022-11-14T04:17:42;34.20;;;18.95;;
69527;SDS011;57136;51.986;4.468;2022-11-14T04:20:08;32.30;;;16.98;;
69527;SDS011;57136;51.986;4.468;2022-11-14T04:22:34;31.77;;;17.52;;
69527;SDS011;57136;51.986;4.468;2022-11-14T04:25:00;34.20;;;18.83;;
69527;SDS011;57136;51.986;4.468;2022-11-14T04:27:25;30.90;;;18.20;;
69527;SDS011;57136;51.986;4.468;2022-11-14T04:29:50;33.70;;;17.45;;
69527;SDS011;57136;51.986;4.468;2022-11-14T04:32:16;32.28;;;19.02;;
69527;SDS011;57136;51.986;4.468;2022-11-14T04:34:41;35.38;;;18.48;;
69527;SDS011;57136;51.986;4.468;2022-11-14T04:37:06;36.40;;;18.63;;
69527;SDS011;57136;51.986;4.468;2022-11-14T04:39:32;33.88;;;19.33;;
69527;SDS011;57136;51.986;4.468;2022-11-14T04:41:57;33.38;;;18.33;;
69527;SDS011;57136;51.986;4.468;2022-11-14T04:44:23;33.40;;;17.92;;
69527;SDS011;57136;51.986;4.468;2022-11-14T04:46:48;34.10;;;18.30;;
69527;SDS011;57136;51.986;4.468;2022-11-14T04:49:13;33.50;;;18.27;;
69527;SDS011;57136;51.986;4.468;2022-11-14T04:51:39;37.17;;;17.77;;
69527;SDS011;57136;51.986;4.468;2022-11-14T04:54:04;32.40;;;17.60;;
69527;SDS011;57136;51.986;4.468;2022-11-14T04:56:29;34.25;;;18.88;;
69527;SDS011;57136;51.986;4.468;2022-11-14T04:58:55;34.33;;;19.45;;
69527;SDS011;57136;51.986;4.468;2022-11-14T05:01:21;40.28;;;19.38;;
69527;SDS011;57136;51.986;4.468;2022-11-14T05:03:46;35.78;;;19.55;;
69527;SDS011;57136;51.986;4.468;2022-11-14T05:06:12;34.53;;;18.80;;
69527;SDS011;57136;51.986;4.468;2022-11-14T05:08:37;38.97;;;20.17;;
69527;SDS011;57136;51.986;4.468;2022-11-14T05:11:02;34.47;;;18.60;;
69527;SDS011;57136;51.986;4.468;2022-11-14T05:13:28;36.13;;;19.45;;
69527;SDS011;57136;51.986;4.468;2022-11-14T05:15:57;36.42;;;18.85;;
69527;SDS011;57136;51.986;4.468;2022-11-14T05:18:24;37.00;;;20.02;;
69527;SDS011;57136;51.986;4.468;2022-11-14T05:20:49;39.30;;;20.05;;
69527;SDS011;57136;51.986;4.468;2022-11-14T05:23:19;37.90;;;19.40;;
69527;SDS011;57136;51.986;4.468;2022-11-14T05:25:47;43.38;;;20.63;;
69527;SDS011;57136;51.986;4.468;2022-11-14T05:28:29;39.15;;;19.88;;
69527;SDS011;57136;51.986;4.468;2022-11-14T05:31:03;45.10;;;21.50;;
69527;SDS011;57136;51.986;4.468;2022-11-14T05:33:29;39.88;;;20.10;;
69527;SDS011;57136;51.986;4.468;2022-11-14T05:35:56;43.60;;;21.30;;
69527;SDS011;57136;51.986;4.468;2022-11-14T05:38:26;40.80;;;20.35;;
69527;SDS011;57136;51.986;4.468;2022-11-14T05:40:51;43.05;;;20.42;;
69527;SDS011;57136;51.986;4.468;2022-11-14T05:43:16;40.33;;;22.00;;
69527;SDS011;57136;51.986;4.468;2022-11-14T05:45:42;41.17;;;20.30;;
69527;SDS011;57136;51.986;4.468;2022-11-14T05:48:07;38.75;;;19.58;;
69527;SDS011;57136;51.986;4.468;2022-11-14T05:50:33;47.60;;;22.35;;
69527;SDS011;57136;51.986;4.468;2022-11-14T05:52:58;40.47;;;21.08;;
69527;SDS011;57136;51.986;4.468;2022-11-14T05:55:23;41.10;;;20.70;;
69527;SDS011;57136;51.986;4.468;2022-11-14T05:57:49;44.42;;;21.27;;
69527;SDS011;57136;51.986;4.468;2022-11-14T06:00:14;37.85;;;19.60;;
69527;SDS011;57136;51.986;4.468;2022-11-14T06:02:40;46.60;;;20.17;;
69527;SDS011;57136;51.986;4.468;2022-11-14T06:05:05;37.72;;;20.05;;
69527;SDS011;57136;51.986;4.468;2022-11-14T06:07:31;44.40;;;21.10;;
69527;SDS011;57136;51.986;4.468;2022-11-14T06:09:56;42.05;;;22.63;;
69527;SDS011;57136;51.986;4.468;2022-11-14T06:12:21;39.78;;;19.08;;
69527;SDS011;57136;51.986;4.468;2022-11-14T06:14:47;38.58;;;19.70;;
69527;SDS011;57136;51.986;4.468;2022-11-14T06:17:12;41.33;;;19.95;;
69527;SDS011;57136;51.986;4.468;2022-11-14T06:19:37;39.38;;;19.40;;
69527;SDS011;57136;51.986;4.468;2022-11-14T06:22:03;43.58;;;20.48;;
69527;SDS011;57136;51.986;4.468;2022-11-14T06:24:28;41.67;;;19.05;;
69527;SDS011;57136;51.986;4.468;2022-11-14T06:26:53;41.13;;;19.02;;
69527;SDS011;57136;51.986;4.468;2022-11-14T06:29:19;40.80;;;20.80;;
69527;SDS011;57136;51.986;4.468;2022-11-14T06:31:44;44.33;;;22.42;;
69527;SDS011;57136;51.986;4.468;2022-11-14T06:34:10;44.10;;;20.15;;
69527;SDS011;57136;51.986;4.468;2022-11-14T06:36:37;47.45;;;22.02;;
69527;SDS011;57136;51.986;4.468;2022-11-14T06:39:02;39.55;;;19.80;;
69527;SDS011;57136;51.986;4.468;2022-11-14T06:41:28;45.17;;;21.95;;
69527;SDS011;57136;51.986;4.468;2022-11-14T06:43:53;44.78;;;21.48;;
69527;SDS011;57136;51.986;4.468;2022-11-14T06:46:19;43.97;;;20.63;;
69527;SDS011;57136;51.986;4.468;2022-11-14T06:48:47;44.10;;;21.65;;
69527;SDS011;57136;51.986;4.468;2022-11-14T06:51:14;45.72;;;21.95;;
69527;SDS011;57136;51.986;4.468;2022-11-14T06:53:40;71.63;;;31.33;;
69527;SDS011;57136;51.986;4.468;2022-11-14T06:56:10;44.95;;;21.60;;
69527;SDS011;57136;51.986;4.468;2022-11-14T06:58:38;41.47;;;20.70;;
69527;SDS011;57136;51.986;4.468;2022-11-14T07:01:06;45.47;;;20.10;;
69527;SDS011;57136;51.986;4.468;2022-11-14T07:03:34;46.67;;;21.88;;
69527;SDS011;57136;51.986;4.468;2022-11-14T07:06:00;46.95;;;22.58;;
69527;SDS011;57136;51.986;4.468;2022-11-14T07:08:26;47.58;;;21.88;;
69527;SDS011;57136;51.986;4.468;2022-11-14T07:10:52;51.75;;;22.40;;
69527;SDS011;57136;51.986;4.468;2022-11-14T07:13:17;48.13;;;22.33;;
69527;SDS011;57136;51.986;4.468;2022-11-14T07:15:49;46.10;;;22.25;;
69527;SDS011;57136;51.986;4.468;2022-11-14T07:18:16;49.55;;;21.83;;
69527;SDS011;57136;51.986;4.468;2022-11-14T07:20:41;45.55;;;22.75;;
69527;SDS011;57136;51.986;4.468;2022-11-14T07:23:06;48.22;;;24.25;;
69527;SDS011;57136;51.986;4.468;2022-11-14T07:25:32;47.45;;;21.65;;
69527;SDS011;57136;51.986;4.468;2022-11-14T07:27:57;51.60;;;23.52;;
69527;SDS011;57136;51.986;4.468;2022-11-14T07:30:23;45.85;;;22.42;;
69527;SDS011;57136;51.986;4.468;2022-11-14T07:32:55;45.60;;;21.27;;
69527;SDS011;57136;51.986;4.468;2022-11-14T07:35:21;49.50;;;23.17;;
69527;SDS011;57136;51.986;4.468;2022-11-14T07:37:47;46.97;;;22.20;;
69527;SDS011;57136;51.986;4.468;2022-11-14T07:40:12;50.35;;;23.25;;
69527;SDS011;57136;51.986;4.468;2022-11-14T07:42:38;44.60;;;22.20;;
69527;SDS011;57136;51.986;4.468;2022-11-14T07:45:03;48.53;;;23.13;;
69527;SDS011;57136;51.986;4.468;2022-11-14T07:47:29;48.25;;;22.23;;
69527;SDS011;57136;51.986;4.468;2022-11-14T07:49:54;46.53;;;23.50;;
69527;SDS011;57136;51.986;4.468;2022-11-14T07:52:19;51.53;;;23.20;;
69527;SDS011;57136;51.986;4.468;2022-11-14T07:54:45;42.92;;;22.27;;
69527;SDS011;57136;51.986;4.468;2022-11-14T07:57:11;43.17;;;21.88;;
69527;SDS011;57136;51.986;4.468;2022-11-14T07:59:36;42.20;;;21.35;;
69527;SDS011;57136;51.986;4.468;2022-11-14T08:02:02;48.28;;;22.30;;
69527;SDS011;57136;51.986;4.468;2022-11-14T08:04:27;44.95;;;22.48;;
69527;SDS011;57136;51.986;4.468;2022-11-14T08:06:52;45.67;;;21.02;;
69527;SDS011;57136;51.986;4.468;2022-11-14T08:09:18;43.90;;;21.50;;
69527;SDS011;57136;51.986;4.468;2022-11-14T08:11:43;41.47;;;22.77;;
69527;SDS011;57136;51.986;4.468;2022-11-14T08:14:11;48.50;;;22.02;;
69527;SDS011;57136;51.986;4.468;2022-11-14T08:16:37;39.22;;;20.83;;
69527;SDS011;57136;51.986;4.468;2022-11-14T08:19:02;49.28;;;22.33;;
69527;SDS011;57136;51.986;4.468;2022-11-14T08:21:27;44.20;;;22.90;;
69527;SDS011;57136;51.986;4.468;2022-11-14T08:23:53;47.72;;;22.45;;
69527;SDS011;57136;51.986;4.468;2022-11-14T08:26:18;44.30;;;23.25;;
69527;SDS011;57136;51.986;4.468;2022-11-14T08:28:43;42.92;;;22.58;;
69527;SDS011;57136;51.986;4.468;2022-11-14T08:31:09;43.58;;;22.23;;
69527;SDS011;57136;51.986;4.468;2022-11-14T08:33:35;42.95;;;20.80;;
69527;SDS011;57136;51.986;4.468;2022-11-14T08:36:04;40.72;;;21.88;;
69527;SDS011;57136;51.986;4.468;2022-11-14T08:38:31;42.78;;;20.85;;
69527;SDS011;57136;51.986;4.468;2022-11-14T08:41:01;40.13;;;21.83;;
69527;SDS011;57136;51.986;4.468;2022-11-14T08:43:27;39.00;;;20.92;;
69527;SDS011;57136;51.986;4.468;2022-11-14T08:45:55;43.53;;;22.50;;
69527;SDS011;57136;51.986;4.468;2022-11-14T08:48:23;41.60;;;21.10;;
69527;SDS011;57136;51.986;4.468;2022-11-14T08:50:48;38.15;;;21.23;;
69527;SDS011;57136;51.986;4.468;2022-11-14T08:53:13;34.78;;;19.98;;
69527;SDS011;57136;51.986;4.468;2022-11-14T08:55:45;35.47;;;20.10;;
69527;SDS011;57136;51.986;4.468;2022-11-14T08:58:11;33.67;;;18.95;;
69527;SDS011;57136;51.986;4.468;2022-11-14T09:00:37;35.17;;;19.20;;
69527;SDS011;57136;51.986;4.468;2022-11-14T09:03:06;31.15;;;17.55;;
69527;SDS011;57136;51.986;4.468;2022-11-14T09:05:32;29.33;;;17.45;;
69527;SDS011;57136;51.986;4.468;2022-11-14T09:07:58;46.55;;;25.25;;
69527;SDS011;57136;51.986;4.468;2022-11-14T09:10:23;29.60;;;16.52;;
69527;SDS011;57136;51.986;4.468;2022-11-14T09:12:53;24.10;;;14.85;;
69527;SDS011;57136;51.986;4.468;2022-11-14T09:15:20;25.92;;;14.55;;
69527;SDS011;57136;51.986;4.468;2022-11-14T09:17:45;24.90;;;13.98;;
69527;SDS011;57136;51.986;4.468;2022-11-14T09:20:10;23.52;;;14.52;;
69527;SDS011;57136;51.986;4.468;2022-11-14T09:22:36;23.52;;;15.07;;
69527;SDS011;57136;51.986;4.468;2022-11-14T09:25:01;20.30;;;13.32;;
69527;SDS011;57136;51.986;4.468;2022-11-14T09:27:27;19.88;;;14.40;;
69527;SDS011;57136;51.986;4.468;2022-11-14T09:29:52;20.77;;;13.48;;
69527;SDS011;57136;51.986;4.468;2022-11-14T09:32:17;19.20;;;12.70;;
69527;SDS011;57136;51.986;4.468;2022-11-14T09:34:43;17.75;;;11.93;;
69527;SDS011;57136;51.986;4.468;2022-11-14T09:37:09;19.50;;;12.65;;
69527;SDS011;57136;51.986;4.468;2022-11-14T09:39:35;21.13;;;13.30;;
69527;SDS011;57136;51.986;4.468;2022-11-14T09:47:29;21.75;;;13.32;;
69527;SDS011;57136;51.986;4.468;2022-11-14T09:50:15;18.52;;;12.32;;
69527;SDS011;57136;51.986;4.468;2022-11-14T09:52:53;19.05;;;12.18;;
69527;SDS011;57136;51.986;4.468;2022-11-14T09:55:22;17.40;;;12.10;;
69527;SDS011;57136;51.986;4.468;2022-11-14T09:57:52;16.75;;;12.35;;
69527;SDS011;57136;51.986;4.468;2022-11-14T10:00:23;16.35;;;12.25;;
69527;SDS011;57136;51.986;4.468;2022-11-14T10:05:35;14.73;;;11.02;;
69527;SDS011;57136;51.986;4.468;2022-11-14T10:27:17;17.58;;;12.18;;
69527;SDS011;57136;51.986;4.468;2022-11-14T10:40:47;19.15;;;12.48;;
69527;SDS011;57136;51.986;4.468;2022-11-14T10:43:17;17.73;;;12.27;;
69527;SDS011;57136;51.986;4.468;2022-11-14T10:45:49;20.13;;;12.73;;
69527;SDS011;57136;51.986;4.468;2022-11-14T10:48:28;21.30;;;13.60;;
69527;SDS011;57136;51.986;4.468;2022-11-14T10:51:06;22.88;;;13.23;;
69527;SDS011;57136;51.986;4.468;2022-11-14T10:53:54;19.02;;;12.68;;
69527;SDS011;57136;51.986;4.468;2022-11-14T10:56:21;19.77;;;13.68;;
69527;SDS011;57136;51.986;4.468;2022-11-14T10:58:46;20.30;;;13.32;;
69527;SDS011;57136;51.986;4.468;2022-11-14T11:04:09;18.38;;;13.45;;
69527;SDS011;57136;51.986;4.468;2022-11-14T11:06:48;19.83;;;12.50;;
69527;SDS011;57136;51.986;4.468;2022-11-14T11:09:19;21.45;;;13.55;;
69527;SDS011;57136;51.986;4.468;2022-11-14T11:12:05;24.13;;;13.70;;
69527;SDS011;57136;51.986;4.468;2022-11-14T11:14:32;20.30;;;14.38;;
69527;SDS011;57136;51.986;4.468;2022-11-14T11:19:39;18.83;;;12.90;;
69527;SDS011;57136;51.986;4.468;2022-11-14T11:24:54;27.10;;;14.55;;
69527;SDS011;57136;51.986;4.468;2022-11-14T11:27:21;21.70;;;14.15;;
69527;SDS011;57136;51.986;4.468;2022-11-14T11:30:07;25.88;;;15.43;;
69527;SDS011;57136;51.986;4.468;2022-11-14T11:32:33;23.65;;;14.38;;
69527;SDS011;57136;51.986;4.468;2022-11-14T11:34:59;23.88;;;14.38;;
69527;SDS011;57136;51.986;4.468;2022-11-14T11:40:27;22.23;;;13.45;;
69527;SDS011;57136;51.986;4.468;2022-11-14T11:43:00;22.80;;;13.93;;
69527;SDS011;57136;51.986;4.468;2022-11-14T11:45:31;23.60;;;14.30;;
69527;SDS011;57136;51.986;4.468;2022-11-14T11:48:18;24.48;;;14.73;;
69527;SDS011;57136;51.986;4.468;2022-11-14T11:50:45;25.80;;;14.52;;
69527;SDS011;57136;51.986;4.468;2022-11-14T11:56:10;27.05;;;15.02;;
69527;SDS011;57136;51.986;4.468;2022-11-14T12:01:09;23.75;;;15.15;;
69527;SDS011;57136;51.986;4.468;2022-11-14T12:03:36;26.00;;;16.42;;
69527;SDS011;57136;51.986;4.468;2022-11-14T12:11:47;25.35;;;16.13;;
69527;SDS011;57136;51.986;4.468;2022-11-14T12:17:12;22.52;;;15.00;;
69527;SDS011;57136;51.986;4.468;2022-11-14T12:31:04;26.13;;;15.82;;
69527;SDS011;57136;51.986;4.468;2022-11-14T12:33:49;25.70;;;14.43;;
69527;SDS011;57136;51.986;4.468;2022-11-14T12:36:28;22.33;;;14.85;;
69527;SDS011;57136;51.986;4.468;2022-11-14T12:38:56;21.52;;;14.77;;
69527;SDS011;57136;51.986;4.468;2022-11-14T12:41:28;22.73;;;14.80;;
69527;SDS011;57136;51.986;4.468;2022-11-14T12:47:10;20.60;;;14.15;;
69527;SDS011;57136;51.986;4.468;2022-11-14T12:49:38;20.70;;;14.63;;
69527;SDS011;57136;51.986;4.468;2022-11-14T13:00:29;17.98;;;13.48;;
69527;SDS011;57136;51.986;4.468;2022-11-14T13:03:02;20.80;;;13.38;;
69527;SDS011;57136;51.986;4.468;2022-11-14T13:08:37;22.23;;;14.25;;
69527;SDS011;57136;51.986;4.468;2022-11-14T13:11:42;17.77;;;13.20;;
69527;SDS011;57136;51.986;4.468;2022-11-14T13:14:26;17.95;;;12.45;;
69527;SDS011;57136;51.986;4.468;2022-11-14T13:19:59;16.58;;;12.77;;
69527;SDS011;57136;51.986;4.468;2022-11-14T13:22:45;17.70;;;13.15;;
69527;SDS011;57136;51.986;4.468;2022-11-14T13:25:15;20.23;;;13.85;;
69527;SDS011;57136;51.986;4.468;2022-11-14T13:27:42;18.40;;;13.60;;
69527;SDS011;57136;51.986;4.468;2022-11-14T13:30:08;18.52;;;13.98;;
69527;SDS011;57136;51.986;4.468;2022-11-14T13:35:09;18.58;;;13.15;;
69527;SDS011;57136;51.986;4.468;2022-11-14T13:38:07;19.92;;;14.45;;
69527;SDS011;57136;51.986;4.468;2022-11-14T13:40:41;21.73;;;14.27;;
69527;SDS011;57136;51.986;4.468;2022-11-14T13:46:16;24.23;;;15.00;;
69527;SDS011;57136;51.986;4.468;2022-11-14T13:51:34;20.88;;;14.32;;
69527;SDS011;57136;51.986;4.468;2022-11-14T13:53:59;20.88;;;14.45;;
69527;SDS011;57136;51.986;4.468;2022-11-14T13:56:34;23.35;;;14.00;;
69527;SDS011;57136;51.986;4.468;2022-11-14T14:07:51;20.98;;;14.32;;
69527;SDS011;57136;51.986;4.468;2022-11-14T14:16:06;20.35;;;15.65;;
69527;SDS011;57136;51.986;4.468;2022-11-14T14:18:42;21.90;;;14.50;;
69527;SDS011;57136;51.986;4.468;2022-11-14T14:32:17;23.77;;;15.20;;
69527;SDS011;57136;51.986;4.468;2022-11-14T14:34:44;23.90;;;15.15;;
69527;SDS011;57136;51.986;4.468;2022-11-14T14:37:28;22.73;;;14.90;;
69527;SDS011;57136;51.986;4.468;2022-11-14T14:40:00;26.42;;;14.82;;
69527;SDS011;57136;51.986;4.468;2022-11-14T14:42:39;25.58;;;14.82;;
69527;SDS011;57136;51.986;4.468;2022-11-14T14:45:16;20.88;;;13.45;;
69527;SDS011;57136;51.986;4.468;2022-11-14T14:47:44;25.90;;;14.90;;
69527;SDS011;57136;51.986;4.468;2022-11-14T14:50:16;24.00;;;15.60;;
69527;SDS011;57136;51.986;4.468;2022-11-14T14:52:45;25.48;;;16.58;;
69527;SDS011;57136;51.986;4.468;2022-11-14T14:55:20;24.10;;;15.32;;
69527;SDS011;57136;51.986;4.468;2022-11-14T14:57:47;26.05;;;15.82;;
69527;SDS011;57136;51.986;4.468;2022-11-14T15:02:45;22.08;;;14.93;;
69527;SDS011;57136;51.986;4.468;2022-11-14T15:05:11;25.00;;;15.18;;
69527;SDS011;57136;51.986;4.468;2022-11-14T15:07:46;22.00;;;15.68;;
69527;SDS011;57136;51.986;4.468;2022-11-14T15:10:23;26.55;;;15.25;;
69527;SDS011;57136;51.986;4.468;2022-11-14T15:12:53;30.40;;;16.13;;
69527;SDS011;57136;51.986;4.468;2022-11-14T15:15:20;24.25;;;15.88;;
69527;SDS011;57136;51.986;4.468;2022-11-14T15:17:47;22.65;;;15.93;;
69527;SDS011;57136;51.986;4.468;2022-11-14T15:20:21;21.10;;;15.05;;
69527;SDS011;57136;51.986;4.468;2022-11-14T15:23:01;27.42;;;16.27;;
69527;SDS011;57136;51.986;4.468;2022-11-14T15:25:27;31.35;;;21.23;;
69527;SDS011;57136;51.986;4.468;2022-11-14T15:27:53;25.90;;;17.35;;
69527;SDS011;57136;51.986;4.468;2022-11-14T15:30:23;23.23;;;15.82;;
69527;SDS011;57136;51.986;4.468;2022-11-14T15:32:54;27.65;;;16.63;;
69527;SDS011;57136;51.986;4.468;2022-11-14T15:37:59;24.58;;;15.95;;
69527;SDS011;57136;51.986;4.468;2022-11-14T15:40:24;25.15;;;16.15;;
69527;SDS011;57136;51.986;4.468;2022-11-14T15:42:50;25.25;;;15.02;;
69527;SDS011;57136;51.986;4.468;2022-11-14T15:45:25;27.73;;;17.13;;
69527;SDS011;57136;51.986;4.468;2022-11-14T15:47:59;28.27;;;16.85;;
69527;SDS011;57136;51.986;4.468;2022-11-14T15:50:29;23.85;;;16.83;;
69527;SDS011;57136;51.986;4.468;2022-11-14T15:52:58;28.33;;;17.27;;
69527;SDS011;57136;51.986;4.468;2022-11-14T15:55:26;27.58;;;17.70;;
69527;SDS011;57136;51.986;4.468;2022-11-14T15:57:52;26.63;;;18.50;;
69527;SDS011;57136;51.986;4.468;2022-11-14T16:00:17;30.15;;;17.08;;
69527;SDS011;57136;51.986;4.468;2022-11-14T16:02:53;27.35;;;17.33;;
69527;SDS011;57136;51.986;4.468;2022-11-14T16:05:23;27.23;;;16.38;;
69527;SDS011;57136;51.986;4.468;2022-11-14T16:07:51;26.02;;;16.52;;
69527;SDS011;57136;51.986;4.468;2022-11-14T16:10:24;28.20;;;16.65;;
69527;SDS011;57136;51.986;4.468;2022-11-14T16:12:51;30.90;;;17.50;;
69527;SDS011;57136;51.986;4.468;2022-11-14T16:15:17;26.05;;;16.63;;
69527;SDS011;57136;51.986;4.468;2022-11-14T16:17:45;29.80;;;19.77;;
69527;SDS011;57136;51.986;4.468;2022-11-14T16:20:13;30.67;;;18.85;;
69527;SDS011;57136;51.986;4.468;2022-11-14T16:22:42;33.13;;;19.98;;
69527;SDS011;57136;51.986;4.468;2022-11-14T16:25:12;37.28;;;21.08;;
69527;SDS011;57136;51.986;4.468;2022-11-14T16:27:41;38.70;;;21.85;;
69527;SDS011;57136;51.986;4.468;2022-11-14T16:30:07;42.17;;;21.92;;
69527;SDS011;57136;51.986;4.468;2022-11-14T16:32:34;42.10;;;23.35;;
69527;SDS011;57136;51.986;4.468;2022-11-14T16:34:59;40.35;;;23.92;;
69527;SDS011;57136;51.986;4.468;2022-11-14T16:37:25;42.70;;;24.30;;
69527;SDS011;57136;51.986;4.468;2022-11-14T16:39:50;49.67;;;26.55;;
69527;SDS011;57136;51.986;4.468;2022-11-14T16:42:15;45.50;;;24.40;;